Time;durP1;ratioP1;P1;durP2;ratioP2;P2;SDS_P1;SDS_P2;PMS_P1;PMS_P2;Temp;Humidity;BMP_temperature;BMP_pressure;BME280_temperature;BME280_humidity;BME280_pressure;Samples;Min_cycle;Max_cycle;Signal;HPM_P1;HPM_P2
2021/09/04 00:02:02;;;;;;;3.15;2.05;;;;;;;;;;5086853;28;20082;-66
2021/09/04 00:04:29;;;;;;;7.35;2.50;;;;;;;;;;5089079;28;20083;-66
2021/09/04 00:06:56;;;;;;;3.13;2.30;;;;;;;;;;5089528;28;20079;-66
2021/09/04 00:09:22;;;;;;;3.95;2.20;;;;;;;;;;5086689;28;20131;-66
2021/09/04 00:11:49;;;;;;;2.35;1.55;;;;;;;;;;5088143;28;20474;-66
2021/09/04 00:14:15;;;;;;;9.00;2.15;;;;;;;;;;5089308;28;20143;-66
2021/09/04 00:16:42;;;;;;;5.40;2.17;;;;;;;;;;5069811;28;20123;-66
2021/09/04 00:19:08;;;;;;;3.80;2.33;;;;;;;;;;5080146;28;20143;-66
2021/09/04 00:21:35;;;;;;;3.22;2.15;;;;;;;;;;5082381;28;20484;-66
2021/09/04 00:24:01;;;;;;;4.40;2.10;;;;;;;;;;5090058;28;20115;-66
2021/09/04 00:26:28;;;;;;;9.25;2.20;;;;;;;;;;5089349;28;20096;-66
2021/09/04 00:28:54;;;;;;;5.60;2.17;;;;;;;;;;5088673;28;20135;-66
2021/09/04 00:31:21;;;;;;;3.40;2.17;;;;;;;;;;5087372;28;20068;-66
2021/09/04 00:33:48;;;;;;;4.70;2.13;;;;;;;;;;5080908;28;20759;-66
2021/09/04 00:36:14;;;;;;;2.97;1.83;;;;;;;;;;5086407;28;20159;-65
2021/09/04 00:38:41;;;;;;;4.78;2.33;;;;;;;;;;5088818;28;20591;-66
2021/09/04 00:41:07;;;;;;;5.88;2.35;;;;;;;;;;5087605;28;20130;-66
2021/09/04 00:43:37;;;;;;;5.57;2.17;;;;;;;;;;5087165;28;20063;-66
2021/09/04 00:46:10;;;;;;;5.57;2.05;;;;;;;;;;5085449;28;20134;-66
2021/09/04 00:48:37;;;;;;;3.75;1.98;;;;;;;;;;5087960;28;20052;-66
2021/09/04 00:51:14;;;;;;;11.45;2.55;;;;;;;;;;5085664;28;20492;-66
2021/09/04 00:53:40;;;;;;;5.25;2.40;;;;;;;;;;5088757;28;20082;-66
2021/09/04 00:56:07;;;;;;;8.90;2.53;;;;;;;;;;5091566;28;20079;-66
2021/09/04 00:58:33;;;;;;;6.43;2.33;;;;;;;;;;5093001;28;20048;-66
2021/09/04 01:01:00;;;;;;;4.32;2.22;;;;;;;;;;5091430;28;20127;-66
2021/09/04 01:03:27;;;;;;;3.88;2.40;;;;;;;;;;5089293;28;20077;-65
2021/09/04 01:05:54;;;;;;;5.80;2.40;;;;;;;;;;5092271;28;20180;-65
2021/09/04 01:08:21;;;;;;;3.92;2.25;;;;;;;;;;5084779;28;20171;-66
2021/09/04 01:10:50;;;;;;;3.20;2.28;;;;;;;;;;5089213;28;20499;-66
2021/09/04 01:13:17;;;;;;;4.03;2.17;;;;;;;;;;5090031;28;20566;-65
2021/09/04 01:15:44;;;;;;;3.33;2.05;;;;;;;;;;5089595;28;20140;-66
2021/09/04 01:18:10;;;;;;;2.40;1.90;;;;;;;;;;5091015;28;20048;-66
2021/09/04 01:20:37;;;;;;;4.80;2.60;;;;;;;;;;5090792;28;20499;-66
2021/09/04 01:23:03;;;;;;;2.42;1.95;;;;;;;;;;5090923;28;20158;-66
2021/09/04 01:25:32;;;;;;;4.43;2.55;;;;;;;;;;5092419;28;20131;-66
2021/09/04 01:27:59;;;;;;;4.07;2.13;;;;;;;;;;5090378;28;20567;-66
2021/09/04 01:30:26;;;;;;;3.17;1.85;;;;;;;;;;5092632;28;20139;-66
2021/09/04 01:32:53;;;;;;;3.78;2.53;;;;;;;;;;5090077;28;20127;-66
2021/09/04 01:35:20;;;;;;;4.13;2.50;;;;;;;;;;5091100;28;20044;-66
2021/09/04 01:37:47;;;;;;;;;;;;;;;;;;5091432;28;20563;-66
2021/09/04 01:40:14;;;;;;;8.70;2.35;;;;;;;;;;5092134;28;19970;-66
2021/09/04 01:42:41;;;;;;;3.60;2.07;;;;;;;;;;5090986;28;20123;-66
2021/09/04 01:45:07;;;;;;;3.03;2.10;;;;;;;;;;5088041;28;20141;-66
2021/09/04 01:47:34;;;;;;;5.13;2.67;;;;;;;;;;5084968;28;20036;-66
2021/09/04 01:50:01;;;;;;;3.65;1.90;;;;;;;;;;5086856;28;20142;-66
2021/09/04 01:52:27;;;;;;;5.25;2.47;;;;;;;;;;5090102;28;20102;-66
2021/09/04 01:54:54;;;;;;;4.57;2.08;;;;;;;;;;5088271;28;20068;-66
2021/09/04 01:57:21;;;;;;;3.00;1.85;;;;;;;;;;5091837;28;20251;-66
2021/09/04 01:59:47;;;;;;;3.25;2.00;;;;;;;;;;5089364;28;20564;-65
2021/09/04 02:02:14;;;;;;;4.32;2.50;;;;;;;;;;5085411;28;20523;-66
2021/09/04 02:04:41;;;;;;;4.32;2.42;;;;;;;;;;5088430;28;20052;-66
2021/09/04 02:07:07;;;;;;;4.57;2.25;;;;;;;;;;5088796;28;20167;-66
2021/09/04 02:09:34;;;;;;;3.45;1.98;;;;;;;;;;5090644;28;20071;-65
2021/09/04 02:12:00;;;;;;;3.88;2.25;;;;;;;;;;5089311;28;20095;-65
2021/09/04 02:14:27;;;;;;;4.35;2.20;;;;;;;;;;5092087;28;20075;-65
2021/09/04 02:16:54;;;;;;;3.83;2.20;;;;;;;;;;5090235;28;20071;-66
2021/09/04 02:19:20;;;;;;;4.68;2.20;;;;;;;;;;5089784;28;20135;-65
2021/09/04 02:21:47;;;;;;;4.47;2.05;;;;;;;;;;5086341;28;20131;-65
2021/09/04 02:24:13;;;;;;;4.88;2.38;;;;;;;;;;5091601;28;20118;-66
2021/09/04 02:26:40;;;;;;;7.95;2.58;;;;;;;;;;5089244;28;20139;-65
2021/09/04 02:29:07;;;;;;;11.40;2.38;;;;;;;;;;5089303;28;20468;-66
2021/09/04 02:31:33;;;;;;;5.30;2.53;;;;;;;;;;5086062;28;20072;-65
2021/09/04 02:34:00;;;;;;;5.55;2.30;;;;;;;;;;5090470;28;20044;-65
2021/09/04 02:36:28;;;;;;;2.42;1.98;;;;;;;;;;5090520;28;20044;-65
2021/09/04 02:38:55;;;;;;;5.10;2.42;;;;;;;;;;5090909;28;20186;-65
2021/09/04 02:41:22;;;;;;;10.73;2.03;;;;;;;;;;5081801;28;20131;-66
2021/09/04 02:43:48;;;;;;;4.90;2.40;;;;;;;;;;5088001;28;20125;-65
2021/09/04 02:46:15;;;;;;;7.18;2.17;;;;;;;;;;5089688;28;20796;-66
2021/09/04 02:48:43;;;;;;;3.33;2.28;;;;;;;;;;5089933;28;20044;-66
2021/09/04 02:51:09;;;;;;;6.00;2.75;;;;;;;;;;5089151;28;20128;-66
2021/09/04 02:53:36;;;;;;;3.95;2.33;;;;;;;;;;5087831;28;20134;-66
2021/09/04 02:56:02;;;;;;;5.53;2.28;;;;;;;;;;5090054;28;20591;-66
2021/09/04 02:58:31;;;;;;;5.63;2.25;;;;;;;;;;5090099;28;20036;-65
2021/09/04 03:00:57;;;;;;;4.22;2.15;;;;;;;;;;5087530;28;20074;-65
2021/09/04 03:03:24;;;;;;;3.33;2.13;;;;;;;;;;5090030;28;20044;-66
2021/09/04 03:05:50;;;;;;;4.90;2.23;;;;;;;;;;5091153;28;20052;-66
2021/09/04 03:08:17;;;;;;;5.53;2.25;;;;;;;;;;5088433;28;20093;-66
2021/09/04 03:10:43;;;;;;;5.35;2.25;;;;;;;;;;5088105;28;20068;-66
2021/09/04 03:13:10;;;;;;;3.80;2.05;;;;;;;;;;5088224;28;20471;-65
2021/09/04 03:15:36;;;;;;;4.50;2.45;;;;;;;;;;5090788;28;20044;-65
2021/09/04 03:18:03;;;;;;;4.10;2.47;;;;;;;;;;5089189;28;20523;-66
2021/09/04 03:20:30;;;;;;;3.13;2.10;;;;;;;;;;5089404;28;20074;-66
2021/09/04 03:22:56;;;;;;;6.95;2.20;;;;;;;;;;5088490;28;20143;-66
2021/09/04 03:25:23;;;;;;;7.90;2.50;;;;;;;;;;5089584;28;20063;-66
2021/09/04 03:27:50;;;;;;;6.72;1.92;;;;;;;;;;5089673;28;20071;-66
2021/09/04 03:30:16;;;;;;;5.10;2.17;;;;;;;;;;5090101;28;20082;-66
2021/09/04 03:32:43;;;;;;;4.40;2.30;;;;;;;;;;5087021;28;20150;-66
2021/09/04 03:35:10;;;;;;;3.90;2.20;;;;;;;;;;5088939;28;20490;-66
2021/09/04 03:37:36;;;;;;;3.60;2.17;;;;;;;;;;5090620;28;20047;-65
2021/09/04 03:40:03;;;;;;;5.30;2.35;;;;;;;;;;5087891;28;20075;-65
2021/09/04 03:42:30;;;;;;;9.52;2.03;;;;;;;;;;5089297;28;20067;-66
2021/09/04 03:44:56;;;;;;;4.80;2.20;;;;;;;;;;5089870;28;20154;-66
2021/09/04 03:47:23;;;;;;;3.75;2.13;;;;;;;;;;5088284;28;20499;-66
2021/09/04 03:49:49;;;;;;;4.45;2.22;;;;;;;;;;5087423;28;20151;-66
2021/09/04 03:52:16;;;;;;;3.90;1.98;;;;;;;;;;5086994;28;20437;-66
2021/09/04 03:54:43;;;;;;;3.85;2.28;;;;;;;;;;5089564;28;20142;-65
2021/09/04 03:57:09;;;;;;;4.28;2.30;;;;;;;;;;5089726;28;20131;-65
2021/09/04 03:59:35;;;;;;;2.67;1.73;;;;;;;;;;5089914;28;20388;-65
2021/09/04 04:02:19;;;;;;;4.53;2.17;;;;;;;;;;5082334;28;20085;-65
2021/09/04 04:04:47;;;;;;;3.03;2.17;;;;;;;;;;5087658;28;20062;-65
2021/09/04 04:07:13;;;;;;;4.68;2.08;;;;;;;;;;5087225;28;20130;-65
2021/09/04 04:09:40;;;;;;;2.53;1.80;;;;;;;;;;5086312;28;20044;-65
2021/09/04 04:12:06;;;;;;;2.90;1.93;;;;;;;;;;5087786;28;20098;-66
2021/09/04 04:14:33;;;;;;;3.15;2.10;;;;;;;;;;5089805;28;20107;-66
2021/09/04 04:16:59;;;;;;;5.25;2.00;;;;;;;;;;5087242;28;20128;-66
2021/09/04 04:19:26;;;;;;;3.85;2.20;;;;;;;;;;5083604;28;20495;-66
2021/09/04 04:21:53;;;;;;;3.65;1.83;;;;;;;;;;5084168;28;20127;-65
2021/09/04 04:24:19;;;;;;;4.28;1.88;;;;;;;;;;5089644;28;20113;-65
2021/09/04 04:26:46;;;;;;;9.30;2.40;;;;;;;;;;5092521;28;20155;-65
2021/09/04 04:29:12;;;;;;;3.45;1.90;;;;;;;;;;5094241;28;20094;-66
2021/09/04 04:31:39;;;;;;;5.60;2.40;;;;;;;;;;5089541;28;20125;-66
2021/09/04 04:34:24;;;;;;;4.28;2.10;;;;;;;;;;5090789;28;20051;-65
2021/09/04 04:36:51;;;;;;;3.83;2.33;;;;;;;;;;5092512;28;20612;-65
2021/09/04 04:39:17;;;;;;;3.47;2.00;;;;;;;;;;5092923;28;20048;-65
2021/09/04 04:41:43;;;;;;;2.97;1.92;;;;;;;;;;5093258;28;20123;-65
2021/09/04 04:44:10;;;;;;;7.28;1.88;;;;;;;;;;5091902;28;20503;-66
2021/09/04 04:46:37;;;;;;;5.05;1.98;;;;;;;;;;5092631;28;20119;-66
2021/09/04 04:49:03;;;;;;;3.97;2.30;;;;;;;;;;5091549;28;20527;-66
2021/09/04 04:51:30;;;;;;;3.88;2.08;;;;;;;;;;5090568;28;20159;-66
2021/09/04 04:53:56;;;;;;;3.38;2.15;;;;;;;;;;5089089;28;20150;-65
2021/09/04 04:56:22;;;;;;;3.05;1.90;;;;;;;;;;5089025;28;20131;-65
2021/09/04 04:58:52;;;;;;;3.72;1.88;;;;;;;;;;5092871;28;20397;-65
2021/09/04 05:01:19;;;;;;;5.13;2.00;;;;;;;;;;5090506;28;20047;-65
2021/09/04 05:03:45;;;;;;;3.77;1.77;;;;;;;;;;5090000;28;20479;-65
2021/09/04 05:06:12;;;;;;;4.45;2.60;;;;;;;;;;5090221;28;20059;-66
2021/09/04 05:08:38;;;;;;;2.50;1.70;;;;;;;;;;5089871;28;20052;-65
2021/09/04 05:11:05;;;;;;;3.58;2.08;;;;;;;;;;5091457;28;20048;-65
2021/09/04 05:13:31;;;;;;;4.80;2.17;;;;;;;;;;5090361;28;20087;-65
2021/09/04 05:15:58;;;;;;;4.28;1.70;;;;;;;;;;5091318;28;20123;-65
2021/09/04 05:18:24;;;;;;;2.95;2.13;;;;;;;;;;5090246;28;20036;-65
2021/09/04 05:20:52;;;;;;;5.78;2.45;;;;;;;;;;5089185;28;20131;-65
2021/09/04 05:23:19;;;;;;;;;;;;;;;;;;5092178;28;20582;-66
2021/09/04 05:25:46;;;;;;;5.95;1.77;;;;;;;;;;5090321;28;20031;-65
2021/09/04 05:28:12;;;;;;;3.67;2.03;;;;;;;;;;5090970;28;20542;-65
2021/09/04 05:30:39;;;;;;;5.07;1.92;;;;;;;;;;5091864;28;20166;-65
2021/09/04 05:33:06;;;;;;;4.95;1.90;;;;;;;;;;5090537;28;20075;-65
2021/09/04 05:35:32;;;;;;;4.90;2.30;;;;;;;;;;5087447;28;20158;-65
2021/09/04 05:37:59;;;;;;;3.25;2.33;;;;;;;;;;5086984;28;20135;-65
2021/09/04 05:40:25;;;;;;;6.15;2.00;;;;;;;;;;5082909;28;20474;-65
2021/09/04 05:42:52;;;;;;;2.60;1.90;;;;;;;;;;5089844;28;20109;-65
2021/09/04 05:45:18;;;;;;;2.95;1.92;;;;;;;;;;5091801;28;20485;-65
2021/09/04 05:47:45;;;;;;;3.63;1.80;;;;;;;;;;5090452;28;20084;-65
2021/09/04 05:50:11;;;;;;;5.40;1.80;;;;;;;;;;5092134;28;20048;-65
2021/09/04 05:52:38;;;;;;;2.83;1.83;;;;;;;;;;5091077;28;20131;-65
2021/09/04 05:55:04;;;;;;;5.80;1.90;;;;;;;;;;5087462;28;20052;-65
2021/09/04 05:57:32;;;;;;;3.42;2.10;;;;;;;;;;5090657;28;20135;-65
2021/09/04 05:59:58;;;;;;;3.38;1.95;;;;;;;;;;5089700;28;20083;-65
2021/09/04 06:02:25;;;;;;;3.00;1.90;;;;;;;;;;5087480;28;20101;-65
2021/09/04 06:04:51;;;;;;;3.45;1.67;;;;;;;;;;5087823;28;20040;-65
2021/09/04 06:07:17;;;;;;;7.93;1.92;;;;;;;;;;5087703;28;20064;-65
2021/09/04 06:09:44;;;;;;;3.60;2.00;;;;;;;;;;5090939;28;20124;-64
2021/09/04 06:12:10;;;;;;;4.22;2.08;;;;;;;;;;5089340;28;20127;-65
2021/09/04 06:14:37;;;;;;;3.53;1.98;;;;;;;;;;5090340;28;20056;-65
2021/09/04 06:17:03;;;;;;;2.17;1.30;;;;;;;;;;5087808;28;20151;-65
2021/09/04 06:19:29;;;;;;;3.20;1.48;;;;;;;;;;5091797;28;20127;-65
2021/09/04 06:21:56;;;;;;;3.25;1.70;;;;;;;;;;5089845;28;20106;-65
2021/09/04 06:24:23;;;;;;;1.80;1.57;;;;;;;;;;5089933;28;20083;-65
2021/09/04 06:26:49;;;;;;;2.92;1.77;;;;;;;;;;5086636;28;20075;-65
2021/09/04 06:29:15;;;;;;;2.65;1.50;;;;;;;;;;5087607;28;20072;-65
2021/09/04 06:31:42;;;;;;;2.45;1.42;;;;;;;;;;5088670;28;20075;-65
2021/09/04 06:34:08;;;;;;;2.83;1.20;;;;;;;;;;5088586;28;20044;-65
2021/09/04 06:36:35;;;;;;;1.52;1.05;;;;;;;;;;5086579;28;20133;-65
2021/09/04 06:39:02;;;;;;;1.52;1.10;;;;;;;;;;5085412;28;20139;-65
2021/09/04 06:41:28;;;;;;;3.70;1.35;;;;;;;;;;5087114;28;20543;-65
2021/09/04 06:43:54;;;;;;;2.97;1.20;;;;;;;;;;5085754;28;20132;-65
2021/09/04 06:46:21;;;;;;;4.13;1.15;;;;;;;;;;5069787;28;20053;-65
2021/09/04 06:48:48;;;;;;;2.47;1.40;;;;;;;;;;5067270;28;20439;-65
2021/09/04 06:51:14;;;;;;;2.60;1.30;;;;;;;;;;5069220;28;20052;-65
2021/09/04 06:53:42;;;;;;;1.40;1.15;;;;;;;;;;5068932;28;20050;-65
2021/09/04 06:56:09;;;;;;;1.70;1.23;;;;;;;;;;5066289;28;20059;-65
2021/09/04 06:58:36;;;;;;;2.50;1.25;;;;;;;;;;5066608;28;20040;-65
2021/09/04 07:01:02;;;;;;;3.08;1.40;;;;;;;;;;5067859;28;20136;-65
2021/09/04 07:03:29;;;;;;;3.40;1.35;;;;;;;;;;5069851;28;20052;-65
2021/09/04 07:05:55;;;;;;;1.40;1.02;;;;;;;;;;5067769;28;20049;-65
2021/09/04 07:08:22;;;;;;;2.03;1.10;;;;;;;;;;5067222;28;20128;-65
2021/09/04 07:10:49;;;;;;;2.88;1.50;;;;;;;;;;5067665;28;20167;-65
2021/09/04 07:13:15;;;;;;;4.35;1.42;;;;;;;;;;5068882;28;20103;-64
2021/09/04 07:15:43;;;;;;;4.07;2.00;;;;;;;;;;5068746;28;20091;-64
2021/09/04 07:18:09;;;;;;;1.98;1.25;;;;;;;;;;5065058;28;20048;-65
2021/09/04 07:20:36;;;;;;;1.67;1.20;;;;;;;;;;5065962;28;20086;-65
2021/09/04 07:23:02;;;;;;;2.70;1.40;;;;;;;;;;5067899;28;20644;-65
2021/09/04 07:25:29;;;;;;;2.28;1.10;;;;;;;;;;5066444;28;20133;-65
2021/09/04 07:27:55;;;;;;;1.90;1.30;;;;;;;;;;5068674;28;20055;-65
2021/09/04 07:30:22;;;;;;;2.35;1.30;;;;;;;;;;5046220;28;20079;-65
2021/09/04 07:32:49;;;;;;;2.97;1.43;;;;;;;;;;5069076;28;20093;-65
2021/09/04 07:35:15;;;;;;;1.55;1.00;;;;;;;;;;5068967;28;20056;-65
2021/09/04 07:37:42;;;;;;;2.75;1.67;;;;;;;;;;5068643;28;20080;-65
2021/09/04 07:40:08;;;;;;;2.03;1.10;;;;;;;;;;5067147;28;20319;-65
2021/09/04 07:42:35;;;;;;;2.70;1.50;;;;;;;;;;5066547;28;20127;-65
2021/09/04 07:45:02;;;;;;;2.05;0.93;;;;;;;;;;5078795;28;20138;-65
2021/09/04 07:47:28;;;;;;;3.08;0.90;;;;;;;;;;5088924;28;20075;-65
2021/09/04 07:49:54;;;;;;;2.17;1.02;;;;;;;;;;5085888;28;20554;-65
2021/09/04 07:52:21;;;;;;;2.50;1.40;;;;;;;;;;5085297;28;20127;-65
2021/09/04 07:54:47;;;;;;;1.27;0.95;;;;;;;;;;5086923;28;20126;-65
2021/09/04 07:57:13;;;;;;;5.30;1.00;;;;;;;;;;5088398;28;20083;-65
2021/09/04 07:59:40;;;;;;;1.60;1.13;;;;;;;;;;5085405;28;20131;-65
2021/09/04 08:02:06;;;;;;;1.83;1.00;;;;;;;;;;5086766;28;20127;-65
2021/09/04 08:04:33;;;;;;;2.83;1.00;;;;;;;;;;5089423;28;20048;-65
2021/09/04 08:06:59;;;;;;;1.70;1.20;;;;;;;;;;5085243;28;20508;-65
2021/09/04 08:09:26;;;;;;;1.73;0.90;;;;;;;;;;5088677;28;20159;-65
2021/09/04 08:11:52;;;;;;;3.85;1.20;;;;;;;;;;5088652;28;20078;-65
2021/09/04 08:14:19;;;;;;;2.47;1.00;;;;;;;;;;5088859;28;20450;-65
2021/09/04 08:16:45;;;;;;;2.72;0.95;;;;;;;;;;5084999;28;20403;-65
2021/09/04 08:19:11;;;;;;;2.20;1.20;;;;;;;;;;5087432;28;20090;-65
2021/09/04 08:21:38;;;;;;;1.80;1.00;;;;;;;;;;5088089;28;20072;-65
2021/09/04 08:24:05;;;;;;;1.20;0.80;;;;;;;;;;5086649;28;20140;-65
2021/09/04 08:26:32;;;;;;;2.05;1.27;;;;;;;;;;5088452;28;20166;-65
2021/09/04 08:28:58;;;;;;;1.35;0.90;;;;;;;;;;5087776;28;20090;-65
2021/09/04 08:31:28;;;;;;;3.15;1.10;;;;;;;;;;5088333;28;20048;-65
2021/09/04 08:33:55;;;;;;;1.63;1.17;;;;;;;;;;5087195;28;20159;-65
2021/09/04 08:36:21;;;;;;;4.55;0.98;;;;;;;;;;5087606;28;20131;-65
2021/09/04 08:38:48;;;;;;;2.97;1.33;;;;;;;;;;5088526;28;20135;-64
2021/09/04 08:41:15;;;;;;;1.42;1.00;;;;;;;;;;5088505;28;20145;-65
2021/09/04 08:43:41;;;;;;;1.05;0.70;;;;;;;;;;5087358;28;20131;-65
2021/09/04 08:46:07;;;;;;;1.08;0.80;;;;;;;;;;5087650;28;20053;-65
2021/09/04 08:48:35;;;;;;;2.03;1.17;;;;;;;;;;5089083;28;20060;-65
2021/09/04 08:51:01;;;;;;;2.50;1.30;;;;;;;;;;5087780;28;20562;-65
2021/09/04 08:53:28;;;;;;;1.48;0.88;;;;;;;;;;5087398;28;20463;-65
2021/09/04 08:55:54;;;;;;;3.72;0.95;;;;;;;;;;5087245;28;20135;-65
2021/09/04 08:58:21;;;;;;;4.13;0.82;;;;;;;;;;5084784;28;20139;-65
2021/09/04 09:00:47;;;;;;;2.08;1.10;;;;;;;;;;5086519;28;20131;-65
2021/09/04 09:03:25;;;;;;;2.97;0.98;;;;;;;;;;5088062;28;20052;-65
2021/09/04 09:05:52;;;;;;;;;;;;;;;;;;5085058;28;20407;-64
2021/09/04 09:08:22;;;;;;;2.47;1.40;;;;;;;;;;5083761;28;20012;-65
2021/09/04 09:10:50;;;;;;;3.78;0.95;;;;;;;;;;5086203;28;20480;-64
2021/09/04 09:13:17;;;;;;;3.70;1.17;;;;;;;;;;5085549;28;20543;-65
2021/09/04 09:15:43;;;;;;;5.18;1.30;;;;;;;;;;5088914;28;20477;-64
2021/09/04 09:18:11;;;;;;;2.38;1.30;;;;;;;;;;5090155;28;20048;-64
2021/09/04 09:20:39;;;;;;;4.90;1.35;;;;;;;;;;5090431;28;20130;-64
2021/09/04 09:23:18;;;;;;;4.38;1.10;;;;;;;;;;5086528;28;20127;-65
2021/09/04 09:25:46;;;;;;;1.63;1.00;;;;;;;;;;5086682;28;20466;-64
2021/09/04 09:28:16;;;;;;;11.68;1.10;;;;;;;;;;5087447;28;20074;-64
2021/09/04 09:30:44;;;;;;;3.65;1.02;;;;;;;;;;5091218;28;20492;-64
2021/09/04 09:33:14;;;;;;;1.58;1.20;;;;;;;;;;5090859;28;20067;-64
2021/09/04 09:35:40;;;;;;;;;;;;;;;;;;5091585;28;20130;-64
2021/09/04 09:38:07;;;;;;;1.77;0.77;;;;;;;;;;5090664;28;19978;-65
2021/09/04 09:40:34;;;;;;;2.65;1.42;;;;;;;;;;5086498;28;20079;-64
2021/09/04 09:43:01;;;;;;;3.10;1.13;;;;;;;;;;5085511;28;20139;-64
2021/09/04 09:45:38;;;;;;;2.53;1.00;;;;;;;;;;5089879;28;20135;-64
2021/09/04 09:48:05;;;;;;;2.65;1.05;;;;;;;;;;5084369;28;20117;-64
2021/09/04 09:50:33;;;;;;;3.28;0.95;;;;;;;;;;5081451;28;20127;-65
2021/09/04 09:53:00;;;;;;;2.03;1.13;;;;;;;;;;5086968;28;20051;-64
2021/09/04 09:55:27;;;;;;;1.60;0.95;;;;;;;;;;5084614;28;20131;-64
2021/09/04 09:57:55;;;;;;;2.53;1.15;;;;;;;;;;5088829;28;20048;-64
2021/09/04 10:00:22;;;;;;;2.10;1.30;;;;;;;;;;5089072;28;20492;-64
2021/09/04 10:02:50;;;;;;;1.60;0.80;;;;;;;;;;5087275;28;20064;-64
2021/09/04 10:05:19;;;;;;;0.98;0.70;;;;;;;;;;5089611;28;20527;-64
2021/09/04 10:07:47;;;;;;;1.58;0.98;;;;;;;;;;5088731;28;20044;-64
2021/09/04 10:10:14;;;;;;;2.10;0.90;;;;;;;;;;5086204;28;20041;-64
2021/09/04 10:12:40;;;;;;;2.72;0.90;;;;;;;;;;5087496;28;20127;-64
2021/09/04 10:15:07;;;;;;;1.25;0.80;;;;;;;;;;5089294;28;20056;-64
2021/09/04 10:17:33;;;;;;;3.47;1.05;;;;;;;;;;5082740;28;20075;-64
2021/09/04 10:20:00;;;;;;;1.08;0.82;;;;;;;;;;5086784;28;20044;-65
2021/09/04 10:22:28;;;;;;;0.70;0.70;;;;;;;;;;5088590;28;20056;-64
2021/09/04 10:24:54;;;;;;;3.67;1.13;;;;;;;;;;5086824;28;20090;-64
2021/09/04 10:27:40;;;;;;;2.45;0.82;;;;;;;;;;5084652;28;20076;-64
2021/09/04 10:30:27;;;;;;;0.90;0.73;;;;;;;;;;5087295;28;20050;-64
2021/09/04 10:33:01;;;;;;;1.90;1.20;;;;;;;;;;5088099;28;20123;-64
2021/09/04 10:35:38;;;;;;;3.50;0.75;;;;;;;;;;5085283;28;20559;-64
2021/09/04 10:38:19;;;;;;;1.65;0.90;;;;;;;;;;5086588;28;20177;-64
2021/09/04 10:40:47;;;;;;;1.63;0.75;;;;;;;;;;5083222;28;20128;-64
2021/09/04 10:43:14;;;;;;;5.45;1.02;;;;;;;;;;5085655;28;20127;-64
2021/09/04 10:45:43;;;;;;;2.47;1.52;;;;;;;;;;5086370;28;20087;-65
2021/09/04 10:48:13;;;;;;;2.70;0.95;;;;;;;;;;5084435;28;20043;-65
2021/09/04 10:50:40;;;;;;;1.73;0.88;;;;;;;;;;5087391;28;20135;-65
2021/09/04 10:53:07;;;;;;;1.73;1.00;;;;;;;;;;5088890;28;20463;-64
2021/09/04 10:55:34;;;;;;;;;;;;;;;;;;5090177;28;20051;-64
2021/09/04 10:58:03;;;;;;;1.73;1.10;;;;;;;;;;5090029;28;19977;-65
2021/09/04 11:00:35;;;;;;;1.27;0.93;;;;;;;;;;5087694;28;20128;-65
2021/09/04 11:03:03;;;;;;;2.38;0.93;;;;;;;;;;5088641;28;20499;-64
2021/09/04 11:05:38;;;;;;;4.00;1.08;;;;;;;;;;5086921;28;20552;-65
2021/09/04 11:08:06;;;;;;;1.55;0.90;;;;;;;;;;5088416;28;20117;-65
2021/09/04 11:10:33;;;;;;;3.08;0.88;;;;;;;;;;5085205;28;20139;-64
2021/09/04 11:13:12;;;;;;;2.65;1.15;;;;;;;;;;5088191;28;20055;-64
2021/09/04 11:15:46;;;;;;;1.35;1.10;;;;;;;;;;5085093;28;20566;-65
2021/09/04 11:18:13;;;;;;;1.27;0.90;;;;;;;;;;5086593;28;20087;-65
2021/09/04 11:20:46;;;;;;;1.63;1.00;;;;;;;;;;5087480;28;20135;-65
2021/09/04 11:23:23;;;;;;;1.45;0.80;;;;;;;;;;5085883;28;20144;-65
2021/09/04 11:25:50;;;;;;;2.70;1.15;;;;;;;;;;5088234;28;20131;-65
2021/09/04 11:28:29;;;;;;;1.67;1.00;;;;;;;;;;5084613;28;20126;-65
2021/09/04 11:30:55;;;;;;;1.95;0.95;;;;;;;;;;5084294;28;20419;-65
2021/09/04 11:33:22;;;;;;;1.80;0.80;;;;;;;;;;5087762;28;20126;-64
2021/09/04 11:35:49;;;;;;;3.20;1.00;;;;;;;;;;5088305;28;20087;-64
2021/09/04 11:38:15;;;;;;;4.57;1.30;;;;;;;;;;5083594;28;20062;-65
2021/09/04 11:40:42;;;;;;;0.93;0.85;;;;;;;;;;5082711;28;20131;-64
2021/09/04 11:43:09;;;;;;;3.47;1.20;;;;;;;;;;5083575;28;20076;-65
2021/09/04 11:45:35;;;;;;;1.42;1.00;;;;;;;;;;5084338;28;20095;-64
2021/09/04 11:48:06;;;;;;;1.75;1.05;;;;;;;;;;5085541;28;20080;-64
2021/09/04 11:50:33;;;;;;;3.35;1.23;;;;;;;;;;5084974;28;20143;-64
2021/09/04 11:53:00;;;;;;;1.05;0.88;;;;;;;;;;5084025;28;20051;-65
2021/09/04 11:55:28;;;;;;;2.72;1.10;;;;;;;;;;5080035;28;20139;-64
2021/09/04 11:57:59;;;;;;;2.42;1.10;;;;;;;;;;5084557;28;20039;-64
2021/09/04 12:00:26;;;;;;;1.48;1.08;;;;;;;;;;5088873;28;20154;-65
2021/09/04 12:03:03;;;;;;;1.58;1.05;;;;;;;;;;5088236;28;20059;-64
2021/09/04 12:05:48;;;;;;;1.50;1.05;;;;;;;;;;5086400;28;20087;-64
2021/09/04 12:08:15;;;;;;;3.28;1.17;;;;;;;;;;5087324;28;20127;-65
2021/09/04 12:10:42;;;;;;;4.88;1.60;;;;;;;;;;5085129;28;20124;-65
2021/09/04 12:13:15;;;;;;;1.58;1.08;;;;;;;;;;5078040;28;20529;-64
2021/09/04 12:15:42;;;;;;;2.08;1.20;;;;;;;;;;5078519;28;20117;-65
2021/09/04 12:18:09;;;;;;;;;;;;;;;;;;5083570;28;20054;-64
2021/09/04 12:20:39;;;;;;;2.15;1.30;;;;;;;;;;5086843;28;19924;-65
2021/09/04 12:23:15;;;;;;;1.73;1.13;;;;;;;;;;5089055;28;20109;-65
2021/09/04 12:25:42;;;;;;;2.17;1.20;;;;;;;;;;5087213;28;20048;-64
2021/09/04 12:28:09;;;;;;;4.55;1.30;;;;;;;;;;5085567;28;20143;-65
2021/09/04 12:30:54;;;;;;;3.13;1.17;;;;;;;;;;5086814;28;20123;-64
2021/09/04 12:33:21;;;;;;;1.67;0.90;;;;;;;;;;5086189;28;20059;-64
2021/09/04 12:35:47;;;;;;;2.60;1.30;;;;;;;;;;5076724;28;20086;-65
2021/09/04 12:38:17;;;;;;;2.70;1.45;;;;;;;;;;5087786;28;20139;-65
2021/09/04 12:41:13;;;;;;;1.85;1.25;;;;;;;;;;5086460;28;20067;-64
2021/09/04 12:43:53;;;;;;;3.42;1.33;;;;;;;;;;5084669;28;20419;-65
2021/09/04 12:46:29;;;;;;;3.28;1.60;;;;;;;;;;5082374;28;20051;-65
2021/09/04 12:48:56;;;;;;;1.52;0.95;;;;;;;;;;5082123;28;20135;-65
2021/09/04 12:51:31;;;;;;;1.90;1.17;;;;;;;;;;5092816;28;20455;-64
2021/09/04 12:54:01;;;;;;;1.40;1.10;;;;;;;;;;5092142;28;20473;-65
2021/09/04 12:56:43;;;;;;;3.33;1.25;;;;;;;;;;5091248;28;20044;-66
2021/09/04 12:59:10;;;;;;;3.97;1.50;;;;;;;;;;5088754;28;20063;-65
2021/09/04 13:01:37;;;;;;;2.38;1.42;;;;;;;;;;5088619;28;20076;-65
2021/09/04 13:04:05;;;;;;;5.80;2.22;;;;;;;;;;5090339;28;20052;-65
2021/09/04 13:06:32;;;;;;;4.22;1.02;;;;;;;;;;5090563;28;20051;-64
2021/09/04 13:08:59;;;;;;;3.75;1.45;;;;;;;;;;5089968;28;20051;-65
2021/09/04 13:11:26;;;;;;;2.00;1.30;;;;;;;;;;5085848;28;20084;-65
2021/09/04 13:13:53;;;;;;;2.10;1.27;;;;;;;;;;5091955;28;20055;-65
2021/09/04 13:16:20;;;;;;;3.75;1.40;;;;;;;;;;5090582;28;20411;-65
2021/09/04 13:18:47;;;;;;;2.17;1.27;;;;;;;;;;5087963;28;20496;-65
2021/09/04 13:21:13;;;;;;;1.35;1.05;;;;;;;;;;5087742;28;20058;-65
2021/09/04 13:23:40;;;;;;;4.63;1.00;;;;;;;;;;5089901;28;20085;-65
2021/09/04 13:26:07;;;;;;;1.98;0.90;;;;;;;;;;5087323;28;20084;-65
2021/09/04 13:28:34;;;;;;;4.17;1.47;;;;;;;;;;5087738;28;20127;-65
2021/09/04 13:31:01;;;;;;;2.80;1.00;;;;;;;;;;5090051;28;20466;-65
2021/09/04 13:33:28;;;;;;;1.52;0.90;;;;;;;;;;5088103;28;20048;-65
2021/09/04 13:35:57;;;;;;;3.67;1.40;;;;;;;;;;5091540;28;20048;-65
2021/09/04 13:38:23;;;;;;;0.77;0.70;;;;;;;;;;5089965;28;20134;-65
2021/09/04 13:40:50;;;;;;;1.55;1.17;;;;;;;;;;5086651;28;20179;-65
2021/09/04 13:43:16;;;;;;;2.42;1.10;;;;;;;;;;5068819;28;20090;-65
2021/09/04 13:45:43;;;;;;;2.78;1.00;;;;;;;;;;5085557;28;20059;-65
2021/09/04 13:48:10;;;;;;;1.48;1.00;;;;;;;;;;5089715;28;20066;-65
2021/09/04 13:50:39;;;;;;;1.33;0.90;;;;;;;;;;5091464;28;20087;-65
2021/09/04 13:53:05;;;;;;;1.30;0.90;;;;;;;;;;5090993;28;20066;-65
2021/09/04 13:55:31;;;;;;;1.52;1.00;;;;;;;;;;5088313;28;20152;-65
2021/09/04 13:57:58;;;;;;;3.35;1.15;;;;;;;;;;5089218;28;20166;-65
2021/09/04 14:00:24;;;;;;;2.00;0.90;;;;;;;;;;5084248;28;20055;-65
2021/09/04 14:02:51;;;;;;;3.40;1.27;;;;;;;;;;5083875;28;20510;-65
2021/09/04 14:05:18;;;;;;;2.67;1.38;;;;;;;;;;5088481;28;20078;-65
2021/09/04 14:07:44;;;;;;;2.63;1.42;;;;;;;;;;5088813;28;20048;-65
2021/09/04 14:10:11;;;;;;;3.03;1.42;;;;;;;;;;5087382;28;20139;-66
2021/09/04 14:12:37;;;;;;;3.95;1.15;;;;;;;;;;5082691;28;20580;-65
2021/09/04 14:15:04;;;;;;;2.30;1.33;;;;;;;;;;5087618;28;20082;-65
2021/09/04 14:17:32;;;;;;;1.90;1.30;;;;;;;;;;5079603;28;20060;-65
2021/09/04 14:19:59;;;;;;;2.75;0.93;;;;;;;;;;5088367;28;20075;-65
2021/09/04 14:22:25;;;;;;;3.83;1.10;;;;;;;;;;5089037;28;20131;-65
2021/09/04 14:24:52;;;;;;;2.45;1.30;;;;;;;;;;5088443;28;20131;-65
2021/09/04 14:27:19;;;;;;;1.40;1.20;;;;;;;;;;5088434;28;20044;-65
2021/09/04 14:29:45;;;;;;;2.22;1.05;;;;;;;;;;5086304;28;20147;-65
2021/09/04 14:32:12;;;;;;;1.92;1.35;;;;;;;;;;5088214;28;20129;-65
2021/09/04 14:34:38;;;;;;;2.55;1.48;;;;;;;;;;5088155;28;20076;-65
2021/09/04 14:37:05;;;;;;;2.05;1.45;;;;;;;;;;5085999;28;20058;-65
2021/09/04 14:39:32;;;;;;;2.13;1.37;;;;;;;;;;5087235;28;20044;-65
2021/09/04 14:41:58;;;;;;;2.25;1.33;;;;;;;;;;5085594;28;20163;-65
2021/09/04 14:44:25;;;;;;;2.27;1.27;;;;;;;;;;5083341;28;20150;-65
2021/09/04 14:46:51;;;;;;;6.55;1.40;;;;;;;;;;5082223;28;20075;-65
2021/09/04 14:49:17;;;;;;;1.98;1.13;;;;;;;;;;5079297;28;20131;-65